createdAt,value
2018-12-26T00:00:17.396Z,30.30
2018-12-26T00:02:47.809Z,26.27
2018-12-26T00:05:20.318Z,40.37
2018-12-26T00:07:52.416Z,27.60
2018-12-26T00:10:22.799Z,27.27
2018-12-26T00:12:52.013Z,28.53
2018-12-26T00:15:23.105Z,26.30
2018-12-26T00:17:53.016Z,28.07
2018-12-26T00:20:22.760Z,30.47
2018-12-26T00:25:50.922Z,32.70
2018-12-26T00:28:20.045Z,22.73
2018-12-26T00:30:49.524Z,24.63
2018-12-26T00:33:24.213Z,31.80
2018-12-26T00:35:53.760Z,27.87
2018-12-26T00:38:29.442Z,37.87
2018-12-26T00:40:58.308Z,24.43
2018-12-26T00:43:28.314Z,36.60
2018-12-26T00:45:57.724Z,26.00
2018-12-26T00:48:27.661Z,23.43
2018-12-26T00:50:57.693Z,23.80
2018-12-26T00:53:26.885Z,31.63
2018-12-26T00:55:56.503Z,30.33
2018-12-26T00:58:25.919Z,29.33
2018-12-26T01:01:03.042Z,31.97
2018-12-26T01:03:32.502Z,30.77
2018-12-26T01:06:03.138Z,30.90
2018-12-26T01:08:34.248Z,26.10
2018-12-26T01:11:05.298Z,31.70
2018-12-26T01:13:34.073Z,32.77
2018-12-26T01:16:03.638Z,31.03
2018-12-26T01:18:33.112Z,30.83
2018-12-26T01:21:04.825Z,34.43
2018-12-26T01:23:34.884Z,37.33
2018-12-26T01:26:04.191Z,29.57
2018-12-26T01:28:33.084Z,30.67
2018-12-26T01:31:02.967Z,37.70
2018-12-26T01:33:32.531Z,29.33
2018-12-26T01:36:07.067Z,30.97
2018-12-26T01:38:35.922Z,31.60
2018-12-26T01:41:05.586Z,28.17
2018-12-26T01:43:36.172Z,29.37
2018-12-26T01:46:05.389Z,38.53
2018-12-26T01:48:35.571Z,27.17
2018-12-26T01:51:05.443Z,27.67
2018-12-26T01:53:35.016Z,29.23
2018-12-26T01:56:04.495Z,32.30
2018-12-26T01:58:36.023Z,33.50
2018-12-26T02:01:05.247Z,38.50
2018-12-26T02:03:36.632Z,37.73
2018-12-26T02:06:06.398Z,33.90
2018-12-26T02:08:35.651Z,30.77
2018-12-26T02:11:05.108Z,34.77
2018-12-26T02:13:34.741Z,39.07
2018-12-26T02:16:04.903Z,42.13
2018-12-26T02:18:34.864Z,44.87
2018-12-26T02:21:04.493Z,37.23
2018-12-26T02:23:33.552Z,37.00
2018-12-26T02:26:03.139Z,37.93
2018-12-26T02:28:31.999Z,42.17
2018-12-26T02:31:02.320Z,32.10
2018-12-26T02:33:31.829Z,40.53
2018-12-26T02:36:00.917Z,38.77
2018-12-26T02:38:32.658Z,53.90
2018-12-26T02:41:03.645Z,35.40
2018-12-26T02:43:33.386Z,46.90
2018-12-26T02:46:07.481Z,37.37
2018-12-26T02:48:37.174Z,36.83
2018-12-26T02:51:07.047Z,50.23
2018-12-26T02:53:38.684Z,36.37
2018-12-26T02:56:08.633Z,34.47
2018-12-26T02:58:38.718Z,47.53
2018-12-26T03:01:09.794Z,47.23
2018-12-26T03:03:39.360Z,39.20
2018-12-26T03:06:09.224Z,51.63
2018-12-26T03:08:38.668Z,44.70
2018-12-26T03:11:08.788Z,40.33
2018-12-26T03:13:40.184Z,36.17
2018-12-26T03:16:10.587Z,43.77
2018-12-26T03:18:40.290Z,42.63
2018-12-26T03:21:09.771Z,40.50
2018-12-26T03:23:40.521Z,46.77
2018-12-26T03:26:10.651Z,40.00
2018-12-26T03:28:40.608Z,35.33
2018-12-26T03:31:09.903Z,43.53
2018-12-26T03:33:41.454Z,42.23
2018-12-26T03:36:10.481Z,45.13
2018-12-26T03:38:40.034Z,41.47
2018-12-26T03:41:09.419Z,41.50
2018-12-26T03:43:39.443Z,42.23
2018-12-26T03:46:10.367Z,55.80
2018-12-26T03:48:40.606Z,41.23
2018-12-26T03:51:11.556Z,43.50
2018-12-26T03:53:41.108Z,56.37
2018-12-26T03:56:11.997Z,40.10
2018-12-26T03:58:40.953Z,41.17
2018-12-26T04:01:11.321Z,57.87
2018-12-26T04:03:41.648Z,46.53
2018-12-26T04:08:47.550Z,55.10
2018-12-26T04:11:16.525Z,53.73
2018-12-26T04:13:48.266Z,40.23
2018-12-26T04:16:17.290Z,44.47
2018-12-26T04:18:48.303Z,45.60
2018-12-26T04:21:17.273Z,42.23
2018-12-26T04:23:47.235Z,44.80
2018-12-26T04:26:16.115Z,43.77
2018-12-26T04:28:46.581Z,58.47
2018-12-26T04:31:15.707Z,45.63
2018-12-26T04:33:45.112Z,51.70
2018-12-26T04:36:15.505Z,42.00
2018-12-26T04:38:45.032Z,48.60
2018-12-26T04:41:14.355Z,47.50
2018-12-26T04:43:43.592Z,56.07
2018-12-26T04:46:15.740Z,55.30
2018-12-26T04:48:45.693Z,45.60
2018-12-26T04:51:15.624Z,49.30
2018-12-26T04:53:44.937Z,51.30
2018-12-26T04:56:13.690Z,53.17
2018-12-26T04:58:42.505Z,46.07
2018-12-26T05:01:11.322Z,52.97
2018-12-26T05:03:40.205Z,47.87
2018-12-26T05:06:09.060Z,47.23
2018-12-26T05:08:38.011Z,50.57
2018-12-26T05:11:08.001Z,40.20
2018-12-26T05:13:37.737Z,46.37
2018-12-26T05:16:06.932Z,58.10
2018-12-26T05:18:36.349Z,59.03
2018-12-26T05:21:06.253Z,58.23
2018-12-26T05:23:35.655Z,42.73
2018-12-26T05:26:04.957Z,48.67
2018-12-26T05:28:34.239Z,55.83
2018-12-26T05:31:04.529Z,52.73
2018-12-26T05:33:35.975Z,50.17
2018-12-26T05:36:06.895Z,48.60
2018-12-26T05:38:40.591Z,45.80
2018-12-26T05:41:10.722Z,45.67
2018-12-26T05:43:40.442Z,59.07
2018-12-26T05:46:10.117Z,48.57
2018-12-26T05:48:41.359Z,54.53
2018-12-26T05:51:10.267Z,63.80
2018-12-26T05:53:39.881Z,55.87
2018-12-26T05:56:09.437Z,52.37
2018-12-26T05:58:38.361Z,55.03
2018-12-26T06:01:08.681Z,62.63
2018-12-26T06:03:41.541Z,56.67
2018-12-26T06:06:14.437Z,56.57
2018-12-26T06:08:43.400Z,62.80
2018-12-26T06:11:14.614Z,66.97
2018-12-26T06:13:43.786Z,55.67
2018-12-26T06:16:13.706Z,54.13
2018-12-26T06:18:43.308Z,59.80
2018-12-26T06:21:13.560Z,55.80
2018-12-26T06:23:42.421Z,60.17
2018-12-26T06:26:12.119Z,64.63
2018-12-26T06:28:43.393Z,58.73
2018-12-26T06:31:12.480Z,64.17
2018-12-26T06:33:43.949Z,63.47
2018-12-26T06:36:12.810Z,57.27
2018-12-26T06:38:42.896Z,69.23
2018-12-26T06:41:15.082Z,67.00
2018-12-26T06:43:44.180Z,62.33
2018-12-26T06:46:14.307Z,69.83
2018-12-26T06:48:46.148Z,54.50
2018-12-26T06:51:17.881Z,65.30
2018-12-26T06:53:46.971Z,67.63
2018-12-26T06:56:18.878Z,63.27
2018-12-26T06:58:48.284Z,62.30
2018-12-26T07:01:17.664Z,66.07
2018-12-26T07:03:46.868Z,55.43
2018-12-26T07:06:17.223Z,70.27
2018-12-26T07:08:46.841Z,73.30
2018-12-26T07:11:16.625Z,74.17
2018-12-26T07:13:50.301Z,74.17
2018-12-26T07:16:19.521Z,68.77
2018-12-26T07:18:49.724Z,68.70
2018-12-26T07:21:19.519Z,74.60
2018-12-26T07:23:57.703Z,65.77
2018-12-26T07:26:35.047Z,63.93
2018-12-26T07:29:18.878Z,64.67
2018-12-26T07:31:55.324Z,82.37
2018-12-26T07:34:42.115Z,72.67
2018-12-26T07:37:08.967Z,79.07
2018-12-26T07:39:40.481Z,73.73
2018-12-26T07:42:10.445Z,83.87
2018-12-26T07:47:36.470Z,73.03
2018-12-26T07:50:07.031Z,71.07
2018-12-26T07:52:40.426Z,74.67
2018-12-26T07:55:12.803Z,74.27
2018-12-26T07:57:44.521Z,74.90
2018-12-26T08:00:16.453Z,77.17
2018-12-26T08:02:45.632Z,75.57
2018-12-26T08:05:15.530Z,82.97
2018-12-26T08:07:44.621Z,83.47
2018-12-26T08:10:14.741Z,72.63
2018-12-26T08:12:43.758Z,67.10
2018-12-26T08:15:12.716Z,72.43
2018-12-26T08:17:42.121Z,89.97
2018-12-26T08:20:11.993Z,74.23
2018-12-26T08:22:45.994Z,64.57
2018-12-26T08:25:15.204Z,75.27
2018-12-26T08:27:50.066Z,91.67
2018-12-26T08:30:18.951Z,86.07
2018-12-26T08:32:48.068Z,93.80
2018-12-26T08:35:22.909Z,65.17
2018-12-26T08:37:52.586Z,82.27
2018-12-26T08:40:21.824Z,88.07
2018-12-26T08:42:50.657Z,75.90
2018-12-26T08:45:19.795Z,78.27
2018-12-26T08:47:48.749Z,81.83
2018-12-26T08:50:19.302Z,75.20
2018-12-26T08:52:50.181Z,68.43
2018-12-26T08:55:18.929Z,81.33
2018-12-26T08:57:50.113Z,83.63
2018-12-26T09:00:21.268Z,79.57
2018-12-26T09:02:52.178Z,90.73
2018-12-26T09:05:21.246Z,80.77
2018-12-26T09:07:52.479Z,92.87
2018-12-26T09:10:24.025Z,96.87
2018-12-26T09:12:55.314Z,89.67
2018-12-26T09:15:31.069Z,83.13
2018-12-26T09:18:04.395Z,78.50
2018-12-26T09:20:39.318Z,76.77
2018-12-26T09:25:55.574Z,83.70
2018-12-26T09:31:20.932Z,84.20
2018-12-26T09:33:52.275Z,82.60
2018-12-26T09:36:23.089Z,90.50
2018-12-26T09:39:01.324Z,84.80
2018-12-26T09:41:49.783Z,80.37
2018-12-26T09:45:18.728Z,86.70
2018-12-26T09:47:48.093Z,89.03
2018-12-26T09:50:21.780Z,85.70
2018-12-26T09:53:02.287Z,71.80
2018-12-26T09:58:19.913Z,83.60
2018-12-26T10:00:55.750Z,70.23
2018-12-26T10:03:29.740Z,69.30
2018-12-26T10:06:10.952Z,79.80
2018-12-26T10:08:50.132Z,77.10
2018-12-26T10:11:29.560Z,67.77
2018-12-26T10:16:43.073Z,76.83
2018-12-26T10:19:29.304Z,66.80
2018-12-26T10:22:02.177Z,65.27
2018-12-26T10:24:39.884Z,74.73
2018-12-26T10:27:19.577Z,55.67
2018-12-26T10:29:49.768Z,78.87
2018-12-26T10:32:20.896Z,63.83
2018-12-26T10:34:53.168Z,68.13
2018-12-26T10:37:27.313Z,61.53
2018-12-26T10:39:56.079Z,75.40
2018-12-26T10:42:24.916Z,59.13
2018-12-26T10:45:03.137Z,69.63
2018-12-26T10:50:23.574Z,61.17
2018-12-26T10:53:05.033Z,55.77
2018-12-26T10:55:38.082Z,53.27
2018-12-26T10:58:11.372Z,69.03
2018-12-26T11:00:43.068Z,60.00
2018-12-26T11:03:17.830Z,51.93
2018-12-26T11:06:02.721Z,62.40
2018-12-26T11:11:17.506Z,51.13
2018-12-26T11:13:51.819Z,50.87
2018-12-26T11:16:32.358Z,46.80
2018-12-26T11:19:04.724Z,48.33
2018-12-26T11:21:38.378Z,45.97
2018-12-26T11:24:07.588Z,46.63
2018-12-26T11:26:38.731Z,42.47
2018-12-26T11:29:19.846Z,58.43
2018-12-26T11:32:01.006Z,52.13
2018-12-26T11:34:38.538Z,49.90
2018-12-26T11:37:12.813Z,51.60
2018-12-26T11:39:58.836Z,54.83
2018-12-26T11:42:38.361Z,43.67
2018-12-26T11:45:16.360Z,47.03
2018-12-26T11:47:46.944Z,42.67
2018-12-26T11:55:53.467Z,49.90
2018-12-26T11:58:27.898Z,32.00
2018-12-26T12:01:07.628Z,43.70
2018-12-26T12:03:43.244Z,36.23
2018-12-26T12:06:22.243Z,37.23
2018-12-26T12:09:04.855Z,37.53
2018-12-26T12:11:36.653Z,42.27
2018-12-26T12:14:12.636Z,40.00
2018-12-26T12:16:47.814Z,42.53
2018-12-26T12:22:08.007Z,39.00
2018-12-26T12:24:59.213Z,43.10
2018-12-26T12:27:48.550Z,35.57
2018-12-26T12:30:26.119Z,36.10
2018-12-26T12:35:51.302Z,34.17
2018-12-26T12:38:36.952Z,46.90
2018-12-26T12:41:17.109Z,51.40
2018-12-26T12:43:56.749Z,42.03
2018-12-26T12:46:47.303Z,42.03
2018-12-26T12:51:59.083Z,37.63
2018-12-26T12:54:31.396Z,39.80
2018-12-26T12:57:07.839Z,43.63
2018-12-26T12:59:52.001Z,35.23
2018-12-26T13:02:21.246Z,40.73
2018-12-26T13:04:50.085Z,38.57
2018-12-26T13:07:18.954Z,40.33
2018-12-26T13:09:47.814Z,31.17
2018-12-26T13:12:16.812Z,37.97
2018-12-26T13:14:47.765Z,35.60
2018-12-26T13:17:28.200Z,36.77
2018-12-26T13:19:57.571Z,39.00
2018-12-26T13:22:26.473Z,34.17
2018-12-26T13:24:55.314Z,31.87
2018-12-26T13:27:31.932Z,37.97
2018-12-26T13:30:02.232Z,32.20
2018-12-26T13:32:32.971Z,39.97
2018-12-26T13:35:03.745Z,32.63
2018-12-26T13:37:42.352Z,35.77
2018-12-26T13:40:11.505Z,35.20
2018-12-26T13:42:42.201Z,35.30
2018-12-26T13:45:11.406Z,31.17
2018-12-26T13:47:40.278Z,35.50
2018-12-26T13:50:09.162Z,34.77
2018-12-26T13:52:38.102Z,34.33
2018-12-26T13:55:07.311Z,34.53
2018-12-26T13:57:36.174Z,40.20
2018-12-26T14:00:09.520Z,34.97
2018-12-26T14:02:40.684Z,33.77
2018-12-26T14:05:09.540Z,32.13
2018-12-26T14:07:40.548Z,35.83
2018-12-26T14:10:10.168Z,32.37
2018-12-26T14:12:39.993Z,38.43
2018-12-26T14:15:09.895Z,34.93
2018-12-26T14:17:38.801Z,47.77
2018-12-26T14:20:08.007Z,36.10
2018-12-26T14:22:36.919Z,32.70
2018-12-26T14:25:07.096Z,30.13
2018-12-26T14:27:38.449Z,36.53
2018-12-26T14:30:11.452Z,32.47
2018-12-26T14:32:40.444Z,33.00
2018-12-26T14:35:10.255Z,31.30
2018-12-26T14:37:40.056Z,41.47
2018-12-26T14:40:09.758Z,39.00
2018-12-26T14:42:38.603Z,38.23
2018-12-26T14:45:07.645Z,37.40
2018-12-26T14:47:38.042Z,39.43
2018-12-26T14:50:07.502Z,38.53
2018-12-26T14:52:36.953Z,38.73
2018-12-26T14:55:06.169Z,40.60
2018-12-26T14:57:36.186Z,39.90
2018-12-26T15:00:06.307Z,32.10
2018-12-26T15:02:57.996Z,38.57
2018-12-26T15:05:27.963Z,37.23
2018-12-26T15:07:56.730Z,42.20
2018-12-26T15:10:25.521Z,38.03
2018-12-26T15:12:59.062Z,35.93
2018-12-26T15:15:29.617Z,37.63
2018-12-26T15:17:58.504Z,41.83
2018-12-26T15:20:27.335Z,40.33
2018-12-26T15:22:57.602Z,52.77
2018-12-26T15:25:27.327Z,43.00
2018-12-26T15:27:57.326Z,42.77
2018-12-26T15:30:28.730Z,49.70
2018-12-26T15:32:56.886Z,41.17
2018-12-26T15:35:25.935Z,41.00
2018-12-26T15:37:55.541Z,36.03
2018-12-26T15:40:24.376Z,33.97
2018-12-26T15:42:53.146Z,38.70
2018-12-26T15:45:21.997Z,41.73
2018-12-26T15:47:50.897Z,35.27
2018-12-26T15:50:19.775Z,40.70
2018-12-26T15:52:48.654Z,34.30
2018-12-26T15:55:17.451Z,38.97
2018-12-26T15:57:47.186Z,32.33
2018-12-26T16:00:16.023Z,34.27
2018-12-26T16:02:44.816Z,31.13
2018-12-26T16:05:13.722Z,36.70
2018-12-26T16:07:42.719Z,28.10
2018-12-26T16:10:12.015Z,30.33
2018-12-26T16:12:40.770Z,35.60
2018-12-26T16:15:10.251Z,31.03
2018-12-26T16:17:39.170Z,33.43
2018-12-26T16:20:09.549Z,32.37
2018-12-26T16:22:39.719Z,39.60
2018-12-26T16:25:09.093Z,27.97
2018-12-26T16:27:37.986Z,33.70
2018-12-26T16:30:07.935Z,25.03
2018-12-26T16:32:37.565Z,37.43
2018-12-26T16:35:08.401Z,28.90
2018-12-26T16:37:37.601Z,30.67
2018-12-26T16:40:07.487Z,35.00
2018-12-26T16:42:36.277Z,32.50
2018-12-26T16:45:05.826Z,34.10
2018-12-26T16:47:35.555Z,36.23
2018-12-26T16:50:04.954Z,37.43
2018-12-26T16:58:05.874Z,38.30
2018-12-26T17:00:35.651Z,31.73
2018-12-26T17:03:05.358Z,30.57
2018-12-26T17:05:35.047Z,34.80
2018-12-26T17:08:05.851Z,31.87
2018-12-26T17:10:35.610Z,39.03
2018-12-26T17:13:05.391Z,33.43
2018-12-26T17:15:35.163Z,37.60
2018-12-26T17:18:04.982Z,54.40
2018-12-26T17:20:34.679Z,33.60
2018-12-26T17:23:04.504Z,36.63
2018-12-26T17:25:35.729Z,39.77
2018-12-26T17:28:05.435Z,36.47
2018-12-26T17:30:36.416Z,53.50
2018-12-26T17:33:06.272Z,40.20
2018-12-26T17:35:36.051Z,43.03
2018-12-26T17:38:19.150Z,32.63
2018-12-26T17:40:49.298Z,40.47
2018-12-26T17:43:19.106Z,41.80
2018-12-26T17:45:50.445Z,43.57
2018-12-26T17:48:20.454Z,41.40
2018-12-26T17:50:51.625Z,45.03
2018-12-26T17:53:48.546Z,46.10
2018-12-26T17:56:28.109Z,47.03
2018-12-26T17:59:51.444Z,46.77
2018-12-26T18:02:28.938Z,41.80
2018-12-26T18:04:58.663Z,41.20
2018-12-26T18:07:29.620Z,46.90
2018-12-26T18:09:59.320Z,44.70
2018-12-26T18:12:30.006Z,42.60
2018-12-26T18:15:00.161Z,39.33
2018-12-26T18:17:29.858Z,38.40
2018-12-26T18:20:01.154Z,53.07
2018-12-26T18:22:31.113Z,40.50
2018-12-26T18:25:00.832Z,47.30
2018-12-26T18:27:30.523Z,42.60
2018-12-26T18:30:00.292Z,41.53
2018-12-26T18:32:30.005Z,41.43
2018-12-26T18:34:59.790Z,42.33
2018-12-26T18:37:29.566Z,39.20
2018-12-26T18:39:59.347Z,45.77
2018-12-26T18:42:29.354Z,43.43
2018-12-26T18:44:59.122Z,43.70
2018-12-26T18:47:28.895Z,46.60
2018-12-26T18:50:02.163Z,50.43
2018-12-26T18:52:32.242Z,42.37
2018-12-26T18:55:02.094Z,47.73
2018-12-26T18:57:31.875Z,45.13
2018-12-26T19:00:04.711Z,41.97
2018-12-26T19:02:34.399Z,48.23
2018-12-26T19:05:05.667Z,40.27
2018-12-26T19:07:37.177Z,39.00
2018-12-26T19:10:08.265Z,47.90
2018-12-26T19:12:38.158Z,44.07
2018-12-26T19:15:08.879Z,49.23
2018-12-26T19:17:38.658Z,42.50
2018-12-26T19:20:10.402Z,43.33
2018-12-26T19:22:41.234Z,39.67
2018-12-26T19:25:11.034Z,40.07
2018-12-26T19:27:41.791Z,43.37
2018-12-26T19:30:14.062Z,49.10
2018-12-26T19:32:43.834Z,47.20
2018-12-26T19:35:14.547Z,42.00
2018-12-26T19:37:44.241Z,49.70
2018-12-26T19:40:13.941Z,50.17
2018-12-26T19:42:46.880Z,51.83
2018-12-26T19:45:18.130Z,43.37
2018-12-26T19:47:49.993Z,46.37
2018-12-26T19:50:19.835Z,50.43
2018-12-26T19:52:49.677Z,56.77
2018-12-26T19:55:19.557Z,46.23
2018-12-26T19:57:54.506Z,50.10
2018-12-26T20:00:24.385Z,47.67
2018-12-26T20:02:54.749Z,56.33
2018-12-26T20:05:25.033Z,47.07
2018-12-26T20:07:56.987Z,52.00
2018-12-26T20:10:26.902Z,41.13
2018-12-26T20:12:58.892Z,39.50
2018-12-26T20:15:31.965Z,47.43
2018-12-26T20:18:02.535Z,52.90
2018-12-26T20:20:32.858Z,48.40
2018-12-26T20:23:03.025Z,66.47
2018-12-26T20:25:32.733Z,51.47
2018-12-26T20:28:03.502Z,66.43
2018-12-26T20:30:37.231Z,58.67
2018-12-26T20:33:09.334Z,49.20
2018-12-26T20:38:44.726Z,53.57
2018-12-26T20:41:24.579Z,55.13
2018-12-26T20:43:58.769Z,49.23
2018-12-26T20:46:37.022Z,49.27
2018-12-26T20:49:23.088Z,54.37
2018-12-26T20:55:23.660Z,46.67
2018-12-26T20:57:53.517Z,58.50
2018-12-26T21:00:42.839Z,51.30
2018-12-26T21:03:14.550Z,50.17
2018-12-26T21:05:44.825Z,43.07
2018-12-26T21:08:19.084Z,48.97
2018-12-26T21:10:50.055Z,48.90
2018-12-26T21:13:22.749Z,46.33
2018-12-26T21:15:58.153Z,50.90
2018-12-26T21:18:48.798Z,50.73
2018-12-26T21:21:20.223Z,40.27
2018-12-26T21:23:53.837Z,42.17
2018-12-26T21:26:27.401Z,41.27
2018-12-26T21:28:58.730Z,35.23
2018-12-26T21:31:49.185Z,43.73
2018-12-26T21:34:49.124Z,41.70
2018-12-26T21:37:19.035Z,41.60
2018-12-26T21:39:50.064Z,36.63
2018-12-26T21:42:19.920Z,39.33
2018-12-26T21:47:47.090Z,40.17
2018-12-26T21:50:22.752Z,34.40
2018-12-26T21:52:55.642Z,38.63
2018-12-26T21:55:30.108Z,44.77
2018-12-26T21:58:05.017Z,38.17
2018-12-26T22:00:44.179Z,39.90
2018-12-26T22:03:21.190Z,41.40
2018-12-26T22:06:16.115Z,45.27
2018-12-26T22:08:54.668Z,37.93
2018-12-26T22:11:28.833Z,51.00
2018-12-26T22:14:00.461Z,49.67
2018-12-26T22:16:52.392Z,40.70
2018-12-26T22:19:25.941Z,38.67
2018-12-26T22:24:57.568Z,41.40
2018-12-26T22:27:55.262Z,43.23
2018-12-26T22:30:49.461Z,48.53
2018-12-26T22:33:23.085Z,38.00
2018-12-26T22:39:22.994Z,34.20
2018-12-26T22:42:04.492Z,46.77
2018-12-26T22:44:35.864Z,42.33
2018-12-26T22:47:07.579Z,38.03
2018-12-26T22:49:40.128Z,42.43
2018-12-26T22:52:13.945Z,37.00
2018-12-26T22:54:46.435Z,37.60
2018-12-26T22:57:38.149Z,31.60
2018-12-26T23:00:12.508Z,34.83
2018-12-26T23:02:47.530Z,40.37
2018-12-26T23:05:22.976Z,37.00
2018-12-26T23:07:53.332Z,34.07
2018-12-26T23:10:36.837Z,34.03
2018-12-26T23:13:09.512Z,32.97
2018-12-26T23:15:45.332Z,32.33
2018-12-26T23:18:17.782Z,36.30
2018-12-26T23:20:48.831Z,36.77
2018-12-26T23:23:23.037Z,29.77
2018-12-26T23:25:58.675Z,30.47
2018-12-26T23:28:30.575Z,28.23
2018-12-26T23:31:05.007Z,29.60
2018-12-26T23:33:41.986Z,31.60
2018-12-26T23:36:22.460Z,33.63
2018-12-26T23:38:58.234Z,33.73
2018-12-26T23:41:31.909Z,31.73
2018-12-26T23:44:03.433Z,27.70
2018-12-26T23:46:49.163Z,29.63
2018-12-26T23:49:22.122Z,25.80
2018-12-26T23:51:56.572Z,28.73
2018-12-26T23:54:26.773Z,31.10
2018-12-26T23:56:58.816Z,30.27
2018-12-26T23:59:30.372Z,26.90
